sensor_id;sensor_type;location;lat;lon;timestamp;P1;durP1;ratioP1;P2;durP2;ratioP2
31638;SDS011;18248;51.522;7.020;2022-08-16T00:00:51;12.63;;;7.38;;
31638;SDS011;18248;51.522;7.020;2022-08-16T00:03:50;21.60;;;8.80;;
31638;SDS011;18248;51.522;7.020;2022-08-16T00:06:49;21.55;;;8.93;;
31638;SDS011;18248;51.522;7.020;2022-08-16T00:09:47;15.77;;;8.50;;
31638;SDS011;18248;51.522;7.020;2022-08-16T00:12:46;18.58;;;8.30;;
31638;SDS011;18248;51.522;7.020;2022-08-16T00:15:46;16.27;;;7.85;;
31638;SDS011;18248;51.522;7.020;2022-08-16T00:18:46;15.25;;;7.82;;
31638;SDS011;18248;51.522;7.020;2022-08-16T00:21:44;12.88;;;7.88;;
31638;SDS011;18248;51.522;7.020;2022-08-16T00:24:44;24.25;;;9.55;;
31638;SDS011;18248;51.522;7.020;2022-08-16T00:27:43;17.52;;;9.43;;
31638;SDS011;18248;51.522;7.020;2022-08-16T00:30:42;17.83;;;9.60;;
31638;SDS011;18248;51.522;7.020;2022-08-16T00:33:41;19.08;;;9.95;;
31638;SDS011;18248;51.522;7.020;2022-08-16T00:36:40;21.83;;;9.73;;
31638;SDS011;18248;51.522;7.020;2022-08-16T00:39:39;13.32;;;7.97;;
31638;SDS011;18248;51.522;7.020;2022-08-16T00:42:37;16.00;;;9.02;;
31638;SDS011;18248;51.522;7.020;2022-08-16T00:48:58;13.68;;;7.35;;
31638;SDS011;18248;51.522;7.020;2022-08-16T00:51:58;12.13;;;6.75;;
31638;SDS011;18248;51.522;7.020;2022-08-16T00:54:57;12.23;;;6.10;;
31638;SDS011;18248;51.522;7.020;2022-08-16T00:57:56;9.35;;;5.57;;
31638;SDS011;18248;51.522;7.020;2022-08-16T01:00:56;10.05;;;4.90;;
31638;SDS011;18248;51.522;7.020;2022-08-16T01:03:55;7.45;;;4.68;;
31638;SDS011;18248;51.522;7.020;2022-08-16T01:06:54;8.65;;;4.70;;
31638;SDS011;18248;51.522;7.020;2022-08-16T01:09:53;10.68;;;4.20;;
31638;SDS011;18248;51.522;7.020;2022-08-16T01:12:51;8.23;;;4.22;;
31638;SDS011;18248;51.522;7.020;2022-08-16T01:15:53;6.53;;;3.92;;
31638;SDS011;18248;51.522;7.020;2022-08-16T01:19:03;9.05;;;4.53;;
31638;SDS011;18248;51.522;7.020;2022-08-16T01:22:32;6.95;;;4.57;;
31638;SDS011;18248;51.522;7.020;2022-08-16T01:25:36;8.35;;;4.00;;
31638;SDS011;18248;51.522;7.020;2022-08-16T01:28:38;7.88;;;4.00;;
31638;SDS011;18248;51.522;7.020;2022-08-16T01:31:38;6.07;;;3.83;;
31638;SDS011;18248;51.522;7.020;2022-08-16T01:34:38;10.32;;;3.38;;
31638;SDS011;18248;51.522;7.020;2022-08-16T01:37:41;8.40;;;3.80;;
31638;SDS011;18248;51.522;7.020;2022-08-16T01:40:43;9.90;;;4.40;;
31638;SDS011;18248;51.522;7.020;2022-08-16T01:43:43;6.30;;;3.42;;
31638;SDS011;18248;51.522;7.020;2022-08-16T01:46:44;9.13;;;3.75;;
31638;SDS011;18248;51.522;7.020;2022-08-16T01:49:45;6.50;;;3.40;;
31638;SDS011;18248;51.522;7.020;2022-08-16T01:52:43;7.00;;;3.47;;
31638;SDS011;18248;51.522;7.020;2022-08-16T01:55:42;8.55;;;4.10;;
31638;SDS011;18248;51.522;7.020;2022-08-16T01:58:43;9.07;;;3.70;;
31638;SDS011;18248;51.522;7.020;2022-08-16T02:01:42;7.93;;;3.58;;
31638;SDS011;18248;51.522;7.020;2022-08-16T02:04:43;4.65;;;3.65;;
31638;SDS011;18248;51.522;7.020;2022-08-16T02:07:41;5.65;;;3.75;;
31638;SDS011;18248;51.522;7.020;2022-08-16T02:10:40;7.18;;;3.53;;
31638;SDS011;18248;51.522;7.020;2022-08-16T02:13:39;9.38;;;3.85;;
31638;SDS011;18248;51.522;7.020;2022-08-16T02:16:39;6.47;;;3.63;;
31638;SDS011;18248;51.522;7.020;2022-08-16T02:19:44;6.72;;;3.72;;
31638;SDS011;18248;51.522;7.020;2022-08-16T02:22:45;6.30;;;3.63;;
31638;SDS011;18248;51.522;7.020;2022-08-16T02:25:44;9.88;;;4.45;;
31638;SDS011;18248;51.522;7.020;2022-08-16T02:28:44;7.50;;;3.53;;
31638;SDS011;18248;51.522;7.020;2022-08-16T02:31:44;5.72;;;3.17;;
31638;SDS011;18248;51.522;7.020;2022-08-16T02:34:44;5.30;;;3.50;;
31638;SDS011;18248;51.522;7.020;2022-08-16T02:37:42;6.97;;;3.92;;
31638;SDS011;18248;51.522;7.020;2022-08-16T02:40:41;9.65;;;3.58;;
31638;SDS011;18248;51.522;7.020;2022-08-16T02:43:40;6.28;;;3.95;;
31638;SDS011;18248;51.522;7.020;2022-08-16T02:46:39;6.75;;;3.60;;
31638;SDS011;18248;51.522;7.020;2022-08-16T02:49:40;6.40;;;4.03;;
31638;SDS011;18248;51.522;7.020;2022-08-16T02:52:40;4.65;;;3.30;;
31638;SDS011;18248;51.522;7.020;2022-08-16T02:55:38;6.22;;;3.35;;
31638;SDS011;18248;51.522;7.020;2022-08-16T02:58:37;10.35;;;3.80;;
31638;SDS011;18248;51.522;7.020;2022-08-16T03:01:36;5.93;;;3.10;;
31638;SDS011;18248;51.522;7.020;2022-08-16T03:04:36;7.82;;;3.60;;
31638;SDS011;18248;51.522;7.020;2022-08-16T03:07:36;6.00;;;3.53;;
31638;SDS011;18248;51.522;7.020;2022-08-16T03:10:35;5.18;;;3.50;;
31638;SDS011;18248;51.522;7.020;2022-08-16T03:13:35;6.32;;;3.28;;
31638;SDS011;18248;51.522;7.020;2022-08-16T03:16:35;9.95;;;4.50;;
31638;SDS011;18248;51.522;7.020;2022-08-16T03:19:34;6.53;;;3.13;;
31638;SDS011;18248;51.522;7.020;2022-08-16T03:22:33;4.47;;;3.30;;
31638;SDS011;18248;51.522;7.020;2022-08-16T03:25:33;6.15;;;3.30;;
31638;SDS011;18248;51.522;7.020;2022-08-16T03:28:32;4.82;;;2.97;;
31638;SDS011;18248;51.522;7.020;2022-08-16T03:31:30;12.23;;;3.80;;
31638;SDS011;18248;51.522;7.020;2022-08-16T03:34:29;5.40;;;3.58;;
31638;SDS011;18248;51.522;7.020;2022-08-16T03:37:30;6.68;;;4.07;;
31638;SDS011;18248;51.522;7.020;2022-08-16T03:40:29;9.95;;;3.90;;
31638;SDS011;18248;51.522;7.020;2022-08-16T03:43:30;7.35;;;3.80;;
31638;SDS011;18248;51.522;7.020;2022-08-16T03:46:29;5.40;;;3.65;;
31638;SDS011;18248;51.522;7.020;2022-08-16T03:49:27;10.80;;;4.20;;
31638;SDS011;18248;51.522;7.020;2022-08-16T03:52:26;4.80;;;3.65;;
31638;SDS011;18248;51.522;7.020;2022-08-16T03:55:25;6.68;;;3.55;;
31638;SDS011;18248;51.522;7.020;2022-08-16T03:58:23;8.30;;;3.70;;
31638;SDS011;18248;51.522;7.020;2022-08-16T04:01:22;8.02;;;4.00;;
31638;SDS011;18248;51.522;7.020;2022-08-16T04:04:21;10.98;;;4.05;;
31638;SDS011;18248;51.522;7.020;2022-08-16T04:07:20;8.32;;;3.65;;
31638;SDS011;18248;51.522;7.020;2022-08-16T04:10:18;10.57;;;4.28;;
31638;SDS011;18248;51.522;7.020;2022-08-16T04:13:17;8.32;;;4.45;;
31638;SDS011;18248;51.522;7.020;2022-08-16T04:16:15;8.13;;;4.20;;
31638;SDS011;18248;51.522;7.020;2022-08-16T04:19:14;14.98;;;4.68;;
31638;SDS011;18248;51.522;7.020;2022-08-16T04:22:13;7.03;;;4.10;;
31638;SDS011;18248;51.522;7.020;2022-08-16T04:25:12;11.63;;;4.53;;
31638;SDS011;18248;51.522;7.020;2022-08-16T04:28:11;11.55;;;4.82;;
31638;SDS011;18248;51.522;7.020;2022-08-16T04:31:10;8.00;;;4.10;;
31638;SDS011;18248;51.522;7.020;2022-08-16T04:34:08;18.08;;;5.63;;
31638;SDS011;18248;51.522;7.020;2022-08-16T04:37:07;12.02;;;5.70;;
31638;SDS011;18248;51.522;7.020;2022-08-16T04:40:06;9.00;;;4.60;;
31638;SDS011;18248;51.522;7.020;2022-08-16T04:43:08;15.32;;;5.85;;
31638;SDS011;18248;51.522;7.020;2022-08-16T04:46:06;13.45;;;5.72;;
31638;SDS011;18248;51.522;7.020;2022-08-16T04:49:06;12.30;;;5.00;;
31638;SDS011;18248;51.522;7.020;2022-08-16T04:52:06;10.45;;;4.55;;
31638;SDS011;18248;51.522;7.020;2022-08-16T04:55:08;11.85;;;4.88;;
31638;SDS011;18248;51.522;7.020;2022-08-16T04:58:10;9.60;;;4.95;;
31638;SDS011;18248;51.522;7.020;2022-08-16T05:01:09;12.80;;;5.47;;
31638;SDS011;18248;51.522;7.020;2022-08-16T05:04:07;5.75;;;4.00;;
31638;SDS011;18248;51.522;7.020;2022-08-16T05:07:06;8.85;;;4.72;;
31638;SDS011;18248;51.522;7.020;2022-08-16T05:10:05;7.45;;;3.92;;
31638;SDS011;18248;51.522;7.020;2022-08-16T05:13:05;9.38;;;4.18;;
31638;SDS011;18248;51.522;7.020;2022-08-16T05:16:04;10.35;;;4.82;;
31638;SDS011;18248;51.522;7.020;2022-08-16T05:19:06;6.50;;;4.10;;
31638;SDS011;18248;51.522;7.020;2022-08-16T05:22:05;9.68;;;3.97;;
31638;SDS011;18248;51.522;7.020;2022-08-16T05:25:04;9.02;;;3.97;;
31638;SDS011;18248;51.522;7.020;2022-08-16T05:28:10;9.20;;;4.10;;
31638;SDS011;18248;51.522;7.020;2022-08-16T05:31:08;6.72;;;3.88;;
31638;SDS011;18248;51.522;7.020;2022-08-16T05:34:07;7.30;;;3.60;;
31638;SDS011;18248;51.522;7.020;2022-08-16T05:37:05;6.20;;;3.88;;
31638;SDS011;18248;51.522;7.020;2022-08-16T05:40:04;8.52;;;4.03;;
31638;SDS011;18248;51.522;7.020;2022-08-16T05:43:04;6.38;;;3.60;;
31638;SDS011;18248;51.522;7.020;2022-08-16T05:46:02;9.25;;;4.00;;
31638;SDS011;18248;51.522;7.020;2022-08-16T05:49:01;14.75;;;4.35;;
31638;SDS011;18248;51.522;7.020;2022-08-16T05:52:00;12.73;;;4.03;;
31638;SDS011;18248;51.522;7.020;2022-08-16T05:54:58;10.07;;;4.25;;
31638;SDS011;18248;51.522;7.020;2022-08-16T05:57:57;9.73;;;3.90;;
31638;SDS011;18248;51.522;7.020;2022-08-16T06:00:55;12.27;;;3.90;;
31638;SDS011;18248;51.522;7.020;2022-08-16T06:03:54;10.27;;;3.35;;
31638;SDS011;18248;51.522;7.020;2022-08-16T06:06:53;11.45;;;4.90;;
31638;SDS011;18248;51.522;7.020;2022-08-16T06:09:51;7.40;;;3.53;;
31638;SDS011;18248;51.522;7.020;2022-08-16T06:12:53;10.25;;;3.92;;
31638;SDS011;18248;51.522;7.020;2022-08-16T06:15:51;7.15;;;3.97;;
31638;SDS011;18248;51.522;7.020;2022-08-16T06:18:51;8.07;;;4.25;;
31638;SDS011;18248;51.522;7.020;2022-08-16T06:21:49;6.68;;;3.85;;
31638;SDS011;18248;51.522;7.020;2022-08-16T06:24:49;7.53;;;4.38;;
31638;SDS011;18248;51.522;7.020;2022-08-16T06:27:49;10.40;;;3.95;;
31638;SDS011;18248;51.522;7.020;2022-08-16T06:30:47;9.35;;;3.85;;
31638;SDS011;18248;51.522;7.020;2022-08-16T06:33:46;13.95;;;4.03;;
31638;SDS011;18248;51.522;7.020;2022-08-16T06:36:45;10.52;;;3.97;;
31638;SDS011;18248;51.522;7.020;2022-08-16T06:39:43;7.85;;;3.92;;
31638;SDS011;18248;51.522;7.020;2022-08-16T06:42:42;10.68;;;3.50;;
31638;SDS011;18248;51.522;7.020;2022-08-16T06:45:40;14.75;;;3.75;;
31638;SDS011;18248;51.522;7.020;2022-08-16T06:48:40;10.75;;;2.88;;
31638;SDS011;18248;51.522;7.020;2022-08-16T06:51:39;8.23;;;3.17;;
31638;SDS011;18248;51.522;7.020;2022-08-16T06:54:38;6.03;;;3.03;;
31638;SDS011;18248;51.522;7.020;2022-08-16T06:57:37;14.07;;;3.95;;
31638;SDS011;18248;51.522;7.020;2022-08-16T07:00:36;6.85;;;3.60;;
31638;SDS011;18248;51.522;7.020;2022-08-16T07:03:35;8.55;;;3.35;;
31638;SDS011;18248;51.522;7.020;2022-08-16T07:06:34;7.47;;;3.38;;
31638;SDS011;18248;51.522;7.020;2022-08-16T07:09:32;12.27;;;3.40;;
31638;SDS011;18248;51.522;7.020;2022-08-16T07:12:31;7.90;;;3.50;;
31638;SDS011;18248;51.522;7.020;2022-08-16T07:15:30;8.30;;;3.38;;
31638;SDS011;18248;51.522;7.020;2022-08-16T07:18:29;9.30;;;3.15;;
31638;SDS011;18248;51.522;7.020;2022-08-16T07:21:28;8.18;;;3.10;;
31638;SDS011;18248;51.522;7.020;2022-08-16T07:24:27;7.97;;;3.10;;
31638;SDS011;18248;51.522;7.020;2022-08-16T07:27:28;7.60;;;2.95;;
31638;SDS011;18248;51.522;7.020;2022-08-16T07:30:27;7.50;;;3.30;;
31638;SDS011;18248;51.522;7.020;2022-08-16T07:33:26;8.85;;;3.72;;
31638;SDS011;18248;51.522;7.020;2022-08-16T07:36:25;16.13;;;4.30;;
31638;SDS011;18248;51.522;7.020;2022-08-16T07:39:23;12.05;;;3.42;;
31638;SDS011;18248;51.522;7.020;2022-08-16T07:42:23;7.80;;;3.28;;
31638;SDS011;18248;51.522;7.020;2022-08-16T07:45:22;10.05;;;3.58;;
31638;SDS011;18248;51.522;7.020;2022-08-16T07:48:22;8.77;;;3.35;;
31638;SDS011;18248;51.522;7.020;2022-08-16T07:51:20;7.55;;;3.08;;
31638;SDS011;18248;51.522;7.020;2022-08-16T07:54:19;12.63;;;3.15;;
31638;SDS011;18248;51.522;7.020;2022-08-16T07:57:18;7.78;;;3.00;;
31638;SDS011;18248;51.522;7.020;2022-08-16T08:00:18;5.60;;;3.13;;
31638;SDS011;18248;51.522;7.020;2022-08-16T08:03:17;9.38;;;3.17;;
31638;SDS011;18248;51.522;7.020;2022-08-16T08:06:16;7.25;;;3.45;;
31638;SDS011;18248;51.522;7.020;2022-08-16T08:09:17;9.30;;;3.42;;
31638;SDS011;18248;51.522;7.020;2022-08-16T08:12:16;8.40;;;3.53;;
31638;SDS011;18248;51.522;7.020;2022-08-16T08:15:16;9.57;;;3.50;;
31638;SDS011;18248;51.522;7.020;2022-08-16T08:18:17;14.98;;;3.60;;
31638;SDS011;18248;51.522;7.020;2022-08-16T08:21:17;14.95;;;3.97;;
31638;SDS011;18248;51.522;7.020;2022-08-16T08:24:16;10.18;;;3.60;;
31638;SDS011;18248;51.522;7.020;2022-08-16T08:27:14;11.48;;;3.72;;
31638;SDS011;18248;51.522;7.020;2022-08-16T08:30:14;8.27;;;2.88;;
31638;SDS011;18248;51.522;7.020;2022-08-16T08:33:16;9.85;;;3.88;;
31638;SDS011;18248;51.522;7.020;2022-08-16T08:36:28;10.88;;;4.22;;
31638;SDS011;18248;51.522;7.020;2022-08-16T08:39:28;10.02;;;3.28;;
31638;SDS011;18248;51.522;7.020;2022-08-16T08:42:26;9.68;;;3.72;;
31638;SDS011;18248;51.522;7.020;2022-08-16T08:45:25;11.05;;;3.70;;
31638;SDS011;18248;51.522;7.020;2022-08-16T08:48:24;16.08;;;3.88;;
31638;SDS011;18248;51.522;7.020;2022-08-16T08:51:24;10.13;;;3.85;;
31638;SDS011;18248;51.522;7.020;2022-08-16T08:54:23;8.60;;;4.20;;
31638;SDS011;18248;51.522;7.020;2022-08-16T08:57:23;11.88;;;4.68;;
31638;SDS011;18248;51.522;7.020;2022-08-16T09:00:22;12.95;;;3.90;;
31638;SDS011;18248;51.522;7.020;2022-08-16T09:03:22;7.88;;;3.78;;
31638;SDS011;18248;51.522;7.020;2022-08-16T09:06:22;10.45;;;4.05;;
31638;SDS011;18248;51.522;7.020;2022-08-16T09:09:21;11.50;;;4.32;;
31638;SDS011;18248;51.522;7.020;2022-08-16T09:12:20;7.38;;;3.65;;
31638;SDS011;18248;51.522;7.020;2022-08-16T09:15:19;19.73;;;4.68;;
31638;SDS011;18248;51.522;7.020;2022-08-16T09:18:18;11.05;;;3.80;;
31638;SDS011;18248;51.522;7.020;2022-08-16T09:21:17;10.68;;;4.38;;
31638;SDS011;18248;51.522;7.020;2022-08-16T09:24:17;11.50;;;4.22;;
31638;SDS011;18248;51.522;7.020;2022-08-16T09:27:17;10.05;;;3.95;;
31638;SDS011;18248;51.522;7.020;2022-08-16T09:30:16;10.45;;;4.25;;
31638;SDS011;18248;51.522;7.020;2022-08-16T09:33:16;8.43;;;4.00;;
31638;SDS011;18248;51.522;7.020;2022-08-16T09:36:15;9.32;;;4.28;;
31638;SDS011;18248;51.522;7.020;2022-08-16T09:39:14;8.32;;;4.20;;
31638;SDS011;18248;51.522;7.020;2022-08-16T09:42:14;9.38;;;3.55;;
31638;SDS011;18248;51.522;7.020;2022-08-16T09:45:14;7.18;;;3.63;;
31638;SDS011;18248;51.522;7.020;2022-08-16T09:48:13;15.35;;;3.97;;
31638;SDS011;18248;51.522;7.020;2022-08-16T09:51:12;11.35;;;3.75;;
31638;SDS011;18248;51.522;7.020;2022-08-16T09:54:11;6.03;;;3.38;;
31638;SDS011;18248;51.522;7.020;2022-08-16T09:57:11;8.60;;;3.70;;
31638;SDS011;18248;51.522;7.020;2022-08-16T10:00:10;6.05;;;3.28;;
31638;SDS011;18248;51.522;7.020;2022-08-16T10:03:19;11.98;;;3.95;;
31638;SDS011;18248;51.522;7.020;2022-08-16T10:06:19;16.38;;;4.75;;
31638;SDS011;18248;51.522;7.020;2022-08-16T10:09:19;9.80;;;3.85;;
31638;SDS011;18248;51.522;7.020;2022-08-16T10:12:17;8.48;;;3.63;;
31638;SDS011;18248;51.522;7.020;2022-08-16T10:15:34;7.22;;;3.63;;
31638;SDS011;18248;51.522;7.020;2022-08-16T10:18:33;8.43;;;3.40;;
31638;SDS011;18248;51.522;7.020;2022-08-16T10:21:32;6.72;;;3.30;;
31638;SDS011;18248;51.522;7.020;2022-08-16T10:24:31;8.77;;;3.45;;
31638;SDS011;18248;51.522;7.020;2022-08-16T10:27:30;7.25;;;4.00;;
31638;SDS011;18248;51.522;7.020;2022-08-16T10:30:31;8.07;;;3.30;;
31638;SDS011;18248;51.522;7.020;2022-08-16T10:33:30;8.32;;;3.20;;
31638;SDS011;18248;51.522;7.020;2022-08-16T10:36:30;6.47;;;3.13;;
31638;SDS011;18248;51.522;7.020;2022-08-16T10:39:29;6.00;;;2.95;;
31638;SDS011;18248;51.522;7.020;2022-08-16T10:42:28;8.20;;;3.05;;
31638;SDS011;18248;51.522;7.020;2022-08-16T10:45:27;10.95;;;3.30;;
31638;SDS011;18248;51.522;7.020;2022-08-16T10:48:28;13.00;;;3.42;;
31638;SDS011;18248;51.522;7.020;2022-08-16T10:51:27;9.70;;;3.42;;
31638;SDS011;18248;51.522;7.020;2022-08-16T10:54:25;9.50;;;3.60;;
31638;SDS011;18248;51.522;7.020;2022-08-16T10:57:24;6.47;;;3.42;;
31638;SDS011;18248;51.522;7.020;2022-08-16T11:00:25;10.27;;;2.88;;
31638;SDS011;18248;51.522;7.020;2022-08-16T11:03:24;8.45;;;3.38;;
31638;SDS011;18248;51.522;7.020;2022-08-16T11:06:25;8.70;;;2.90;;
31638;SDS011;18248;51.522;7.020;2022-08-16T11:09:25;10.65;;;3.15;;
31638;SDS011;18248;51.522;7.020;2022-08-16T11:12:23;6.63;;;2.92;;
31638;SDS011;18248;51.522;7.020;2022-08-16T11:15:22;6.32;;;3.03;;
31638;SDS011;18248;51.522;7.020;2022-08-16T11:18:22;6.60;;;2.83;;
31638;SDS011;18248;51.522;7.020;2022-08-16T11:21:21;6.80;;;3.10;;
31638;SDS011;18248;51.522;7.020;2022-08-16T11:24:22;10.50;;;3.05;;
31638;SDS011;18248;51.522;7.020;2022-08-16T11:27:21;7.65;;;2.90;;
31638;SDS011;18248;51.522;7.020;2022-08-16T11:30:21;8.35;;;2.50;;
31638;SDS011;18248;51.522;7.020;2022-08-16T11:33:20;10.73;;;2.72;;
31638;SDS011;18248;51.522;7.020;2022-08-16T11:36:19;8.38;;;2.58;;
31638;SDS011;18248;51.522;7.020;2022-08-16T11:39:17;9.27;;;2.90;;
31638;SDS011;18248;51.522;7.020;2022-08-16T11:42:16;10.80;;;2.92;;
31638;SDS011;18248;51.522;7.020;2022-08-16T11:45:14;13.50;;;3.05;;
31638;SDS011;18248;51.522;7.020;2022-08-16T11:48:14;6.97;;;3.13;;
31638;SDS011;18248;51.522;7.020;2022-08-16T11:51:13;6.40;;;2.42;;
31638;SDS011;18248;51.522;7.020;2022-08-16T11:54:12;8.07;;;2.85;;
31638;SDS011;18248;51.522;7.020;2022-08-16T11:57:11;9.52;;;2.63;;
31638;SDS011;18248;51.522;7.020;2022-08-16T12:00:12;9.93;;;2.47;;
31638;SDS011;18248;51.522;7.020;2022-08-16T12:03:12;8.25;;;3.17;;
31638;SDS011;18248;51.522;7.020;2022-08-16T12:06:13;8.02;;;2.92;;
31638;SDS011;18248;51.522;7.020;2022-08-16T12:09:14;7.60;;;2.92;;
31638;SDS011;18248;51.522;7.020;2022-08-16T12:12:13;15.70;;;3.05;;
31638;SDS011;18248;51.522;7.020;2022-08-16T12:15:12;10.30;;;3.17;;
31638;SDS011;18248;51.522;7.020;2022-08-16T12:18:12;6.45;;;3.10;;
31638;SDS011;18248;51.522;7.020;2022-08-16T12:21:11;7.20;;;2.55;;
31638;SDS011;18248;51.522;7.020;2022-08-16T12:24:11;7.13;;;2.85;;
31638;SDS011;18248;51.522;7.020;2022-08-16T12:27:09;17.20;;;3.45;;
31638;SDS011;18248;51.522;7.020;2022-08-16T12:30:08;8.45;;;3.20;;
31638;SDS011;18248;51.522;7.020;2022-08-16T12:33:10;7.00;;;2.67;;
31638;SDS011;18248;51.522;7.020;2022-08-16T12:36:13;10.52;;;3.20;;
31638;SDS011;18248;51.522;7.020;2022-08-16T12:39:12;8.05;;;3.03;;
31638;SDS011;18248;51.522;7.020;2022-08-16T12:42:11;8.43;;;2.92;;
31638;SDS011;18248;51.522;7.020;2022-08-16T12:45:12;6.35;;;2.90;;
31638;SDS011;18248;51.522;7.020;2022-08-16T12:48:11;8.27;;;3.47;;
31638;SDS011;18248;51.522;7.020;2022-08-16T12:51:33;9.98;;;3.20;;
31638;SDS011;18248;51.522;7.020;2022-08-16T12:54:36;8.40;;;3.13;;
31638;SDS011;18248;51.522;7.020;2022-08-16T12:57:37;5.65;;;2.85;;
31638;SDS011;18248;51.522;7.020;2022-08-16T13:00:37;11.88;;;3.88;;
31638;SDS011;18248;51.522;7.020;2022-08-16T13:03:36;9.50;;;2.90;;
31638;SDS011;18248;51.522;7.020;2022-08-16T13:06:39;11.65;;;3.10;;
31638;SDS011;18248;51.522;7.020;2022-08-16T13:09:39;6.85;;;3.00;;
31638;SDS011;18248;51.522;7.020;2022-08-16T13:12:50;11.27;;;3.63;;
31638;SDS011;18248;51.522;7.020;2022-08-16T13:15:53;10.63;;;3.67;;
31638;SDS011;18248;51.522;7.020;2022-08-16T13:18:54;10.57;;;3.67;;
31638;SDS011;18248;51.522;7.020;2022-08-16T13:21:52;7.95;;;3.40;;
31638;SDS011;18248;51.522;7.020;2022-08-16T13:24:52;13.82;;;3.75;;
31638;SDS011;18248;51.522;7.020;2022-08-16T13:27:52;13.00;;;3.35;;
31638;SDS011;18248;51.522;7.020;2022-08-16T13:30:53;4.80;;;2.78;;
31638;SDS011;18248;51.522;7.020;2022-08-16T13:33:53;6.45;;;3.05;;
31638;SDS011;18248;51.522;7.020;2022-08-16T13:36:51;7.03;;;2.97;;
31638;SDS011;18248;51.522;7.020;2022-08-16T13:39:51;10.95;;;2.90;;
31638;SDS011;18248;51.522;7.020;2022-08-16T13:42:51;9.15;;;2.97;;
31638;SDS011;18248;51.522;7.020;2022-08-16T13:45:50;11.73;;;3.20;;
31638;SDS011;18248;51.522;7.020;2022-08-16T13:48:49;11.65;;;3.08;;
31638;SDS011;18248;51.522;7.020;2022-08-16T13:51:47;12.10;;;3.03;;
31638;SDS011;18248;51.522;7.020;2022-08-16T13:54:46;9.32;;;2.97;;
31638;SDS011;18248;51.522;7.020;2022-08-16T13:57:45;9.57;;;2.80;;
31638;SDS011;18248;51.522;7.020;2022-08-16T14:00:43;11.00;;;3.40;;
31638;SDS011;18248;51.522;7.020;2022-08-16T14:03:43;8.48;;;3.00;;
31638;SDS011;18248;51.522;7.020;2022-08-16T14:06:44;8.68;;;3.05;;
31638;SDS011;18248;51.522;7.020;2022-08-16T14:09:42;9.52;;;2.97;;
31638;SDS011;18248;51.522;7.020;2022-08-16T14:12:41;12.32;;;3.33;;
31638;SDS011;18248;51.522;7.020;2022-08-16T14:15:40;11.43;;;3.10;;
31638;SDS011;18248;51.522;7.020;2022-08-16T14:18:39;9.80;;;3.38;;
31638;SDS011;18248;51.522;7.020;2022-08-16T14:21:37;9.75;;;2.80;;
31638;SDS011;18248;51.522;7.020;2022-08-16T14:24:36;6.90;;;2.95;;
31638;SDS011;18248;51.522;7.020;2022-08-16T14:27:36;10.10;;;3.45;;
31638;SDS011;18248;51.522;7.020;2022-08-16T14:30:35;7.07;;;3.63;;
31638;SDS011;18248;51.522;7.020;2022-08-16T14:33:35;7.55;;;3.25;;
31638;SDS011;18248;51.522;7.020;2022-08-16T14:36:34;5.82;;;3.20;;
31638;SDS011;18248;51.522;7.020;2022-08-16T14:39:32;9.15;;;3.22;;
31638;SDS011;18248;51.522;7.020;2022-08-16T14:42:32;10.65;;;3.40;;
31638;SDS011;18248;51.522;7.020;2022-08-16T14:45:30;8.93;;;3.58;;
31638;SDS011;18248;51.522;7.020;2022-08-16T14:48:29;6.35;;;3.35;;
31638;SDS011;18248;51.522;7.020;2022-08-16T14:51:28;6.63;;;3.17;;
31638;SDS011;18248;51.522;7.020;2022-08-16T14:54:26;8.38;;;3.15;;
31638;SDS011;18248;51.522;7.020;2022-08-16T14:57:25;6.85;;;3.03;;
31638;SDS011;18248;51.522;7.020;2022-08-16T15:00:24;5.72;;;3.22;;
31638;SDS011;18248;51.522;7.020;2022-08-16T15:03:24;12.38;;;3.65;;
31638;SDS011;18248;51.522;7.020;2022-08-16T15:06:23;8.55;;;2.63;;
31638;SDS011;18248;51.522;7.020;2022-08-16T15:09:21;8.30;;;3.40;;
31638;SDS011;18248;51.522;7.020;2022-08-16T15:12:20;6.93;;;3.47;;
31638;SDS011;18248;51.522;7.020;2022-08-16T15:15:21;6.00;;;2.90;;
31638;SDS011;18248;51.522;7.020;2022-08-16T15:18:22;5.20;;;2.90;;
31638;SDS011;18248;51.522;7.020;2022-08-16T15:21:20;13.38;;;3.50;;
31638;SDS011;18248;51.522;7.020;2022-08-16T15:24:19;5.85;;;3.33;;
31638;SDS011;18248;51.522;7.020;2022-08-16T15:27:17;10.70;;;3.92;;
31638;SDS011;18248;51.522;7.020;2022-08-16T15:30:20;7.05;;;3.28;;
31638;SDS011;18248;51.522;7.020;2022-08-16T15:33:21;6.97;;;3.22;;
31638;SDS011;18248;51.522;7.020;2022-08-16T15:36:24;10.48;;;3.47;;
31638;SDS011;18248;51.522;7.020;2022-08-16T15:39:22;8.85;;;3.10;;
31638;SDS011;18248;51.522;7.020;2022-08-16T15:42:21;6.40;;;3.25;;
31638;SDS011;18248;51.522;7.020;2022-08-16T15:45:20;8.93;;;3.28;;
31638;SDS011;18248;51.522;7.020;2022-08-16T15:48:38;5.88;;;2.72;;
31638;SDS011;18248;51.522;7.020;2022-08-16T15:51:36;8.65;;;3.05;;
31638;SDS011;18248;51.522;7.020;2022-08-16T15:54:35;5.28;;;3.15;;
31638;SDS011;18248;51.522;7.020;2022-08-16T15:57:38;10.02;;;3.03;;
31638;SDS011;18248;51.522;7.020;2022-08-16T16:00:38;5.70;;;3.17;;
31638;SDS011;18248;51.522;7.020;2022-08-16T16:03:37;7.15;;;3.20;;
31638;SDS011;18248;51.522;7.020;2022-08-16T16:06:37;7.78;;;2.88;;
31638;SDS011;18248;51.522;7.020;2022-08-16T16:09:35;7.38;;;3.30;;
31638;SDS011;18248;51.522;7.020;2022-08-16T16:12:34;11.50;;;3.30;;
31638;SDS011;18248;51.522;7.020;2022-08-16T16:15:35;7.57;;;3.17;;
31638;SDS011;18248;51.522;7.020;2022-08-16T16:18:36;7.82;;;2.90;;
31638;SDS011;18248;51.522;7.020;2022-08-16T16:21:36;6.68;;;3.08;;
31638;SDS011;18248;51.522;7.020;2022-08-16T16:24:35;7.05;;;3.00;;
31638;SDS011;18248;51.522;7.020;2022-08-16T16:27:34;6.82;;;3.42;;
31638;SDS011;18248;51.522;7.020;2022-08-16T16:30:32;11.30;;;6.57;;
31638;SDS011;18248;51.522;7.020;2022-08-16T16:33:32;10.70;;;3.60;;
31638;SDS011;18248;51.522;7.020;2022-08-16T16:36:34;10.63;;;3.95;;
31638;SDS011;18248;51.522;7.020;2022-08-16T16:39:32;10.27;;;3.90;;
31638;SDS011;18248;51.522;7.020;2022-08-16T16:42:33;8.48;;;3.25;;
31638;SDS011;18248;51.522;7.020;2022-08-16T16:45:33;11.02;;;3.25;;
31638;SDS011;18248;51.522;7.020;2022-08-16T16:48:32;9.40;;;2.67;;
31638;SDS011;18248;51.522;7.020;2022-08-16T16:51:31;10.80;;;2.72;;
31638;SDS011;18248;51.522;7.020;2022-08-16T16:54:31;6.82;;;2.85;;
31638;SDS011;18248;51.522;7.020;2022-08-16T16:57:29;9.48;;;2.67;;
31638;SDS011;18248;51.522;7.020;2022-08-16T17:00:46;8.88;;;2.47;;
31638;SDS011;18248;51.522;7.020;2022-08-16T17:03:46;6.68;;;2.90;;
31638;SDS011;18248;51.522;7.020;2022-08-16T17:06:46;8.80;;;3.13;;
31638;SDS011;18248;51.522;7.020;2022-08-16T17:09:47;5.63;;;2.95;;
31638;SDS011;18248;51.522;7.020;2022-08-16T17:12:46;6.32;;;2.75;;
31638;SDS011;18248;51.522;7.020;2022-08-16T17:15:45;10.52;;;2.65;;
31638;SDS011;18248;51.522;7.020;2022-08-16T17:18:44;5.13;;;2.97;;
31638;SDS011;18248;51.522;7.020;2022-08-16T17:21:42;7.93;;;2.78;;
31638;SDS011;18248;51.522;7.020;2022-08-16T17:24:44;4.38;;;2.40;;
31638;SDS011;18248;51.522;7.020;2022-08-16T17:27:45;10.88;;;2.85;;
31638;SDS011;18248;51.522;7.020;2022-08-16T17:30:43;7.15;;;2.90;;
31638;SDS011;18248;51.522;7.020;2022-08-16T17:33:42;8.65;;;2.95;;
31638;SDS011;18248;51.522;7.020;2022-08-16T17:36:41;12.02;;;3.25;;
31638;SDS011;18248;51.522;7.020;2022-08-16T17:39:40;10.80;;;2.92;;
31638;SDS011;18248;51.522;7.020;2022-08-16T17:42:39;8.82;;;2.58;;
31638;SDS011;18248;51.522;7.020;2022-08-16T17:45:39;8.50;;;2.80;;
31638;SDS011;18248;51.522;7.020;2022-08-16T17:48:38;5.57;;;2.50;;
31638;SDS011;18248;51.522;7.020;2022-08-16T17:51:36;9.73;;;2.92;;
31638;SDS011;18248;51.522;7.020;2022-08-16T17:54:35;4.82;;;2.65;;
31638;SDS011;18248;51.522;7.020;2022-08-16T17:57:34;7.80;;;2.78;;
31638;SDS011;18248;51.522;7.020;2022-08-16T18:00:32;6.18;;;2.40;;